createdAt,value
2023-12-11T00:00:40.203Z,13.80
2023-12-11T00:03:28.636Z,13.60
2023-12-11T00:05:57.082Z,14.90
2023-12-11T00:08:25.648Z,15.00
2023-12-11T00:10:53.866Z,15.90
2023-12-11T00:13:22.670Z,17.50
2023-12-11T00:15:50.963Z,18.10
2023-12-11T00:18:19.228Z,18.10
2023-12-11T00:20:47.544Z,16.70
2023-12-11T00:23:15.669Z,17.20
2023-12-11T00:25:48.225Z,15.60
2023-12-11T00:28:16.473Z,16.30
2023-12-11T00:30:45.089Z,16.10
2023-12-11T00:33:13.386Z,16.50
2023-12-11T00:35:41.861Z,16.00
2023-12-11T00:38:10.261Z,16.10
2023-12-11T00:40:38.460Z,15.90
2023-12-11T00:43:06.741Z,16.60
2023-12-11T00:45:34.991Z,16.10
2023-12-11T00:48:03.332Z,15.40
2023-12-11T00:50:31.683Z,16.70
2023-12-11T00:52:59.859Z,15.90
2023-12-11T00:55:28.125Z,16.50
2023-12-11T00:57:56.352Z,16.10
2023-12-11T01:00:24.501Z,18.40
2023-12-11T01:02:52.643Z,16.80
2023-12-11T01:05:20.814Z,15.30
2023-12-11T01:07:49.234Z,16.60
2023-12-11T01:10:17.718Z,16.00
2023-12-11T01:12:45.926Z,15.30
2023-12-11T01:15:14.138Z,17.00
2023-12-11T01:17:44.964Z,16.70
2023-12-11T01:20:13.478Z,17.50
2023-12-11T01:22:42.700Z,16.90
2023-12-11T01:25:11.066Z,16.20
2023-12-11T01:27:39.412Z,17.50
2023-12-11T01:30:08.465Z,16.50
2023-12-11T01:32:36.735Z,17.40
2023-12-11T01:35:05.159Z,15.70
2023-12-11T01:37:33.305Z,15.60
2023-12-11T01:40:01.619Z,15.30
2023-12-11T01:42:29.808Z,15.80
2023-12-11T01:44:57.941Z,16.10
2023-12-11T01:47:26.104Z,16.00
2023-12-11T01:49:54.406Z,15.20
2023-12-11T01:52:23.743Z,18.60
2023-12-11T01:54:52.898Z,18.90
2023-12-11T01:57:21.328Z,18.20
2023-12-11T01:59:49.711Z,17.10
2023-12-11T02:02:21.411Z,14.70
2023-12-11T02:04:55.296Z,13.70
2023-12-11T02:07:23.754Z,14.40
2023-12-11T02:09:52.112Z,18.50
2023-12-11T02:12:20.360Z,19.40
2023-12-11T02:14:48.721Z,18.40
2023-12-11T02:17:17.214Z,18.20
2023-12-11T02:19:45.446Z,17.00
2023-12-11T02:22:14.699Z,16.60
2023-12-11T02:24:59.485Z,16.80
2023-12-11T02:27:28.418Z,15.10
2023-12-11T02:29:57.374Z,16.10
2023-12-11T02:32:25.508Z,15.10
2023-12-11T02:34:53.804Z,15.00
2023-12-11T02:37:21.965Z,18.40
2023-12-11T02:39:50.230Z,21.80
2023-12-11T02:42:18.428Z,18.80
2023-12-11T02:44:46.636Z,15.60
2023-12-11T02:47:14.747Z,17.80
2023-12-11T02:49:43.074Z,18.90
2023-12-11T02:52:11.486Z,19.90
2023-12-11T02:54:39.997Z,18.90
2023-12-11T02:57:08.144Z,13.60
2023-12-11T02:59:36.372Z,12.10
2023-12-11T03:02:04.694Z,17.60
2023-12-11T03:04:33.094Z,22.80
2023-12-11T03:07:01.500Z,20.80
2023-12-11T03:09:29.667Z,18.50
2023-12-11T03:11:57.859Z,18.30
2023-12-11T03:14:26.016Z,17.90
2023-12-11T03:16:54.204Z,18.10
2023-12-11T03:19:22.368Z,17.40
2023-12-11T03:21:50.792Z,18.60
2023-12-11T03:24:18.975Z,17.80
2023-12-11T03:26:47.087Z,17.60
2023-12-11T03:29:15.219Z,16.80
2023-12-11T03:31:43.421Z,14.30
2023-12-11T03:34:11.629Z,12.30
2023-12-11T03:36:39.932Z,13.90
2023-12-11T03:39:09.001Z,12.90
2023-12-11T03:41:40.086Z,14.20
2023-12-11T03:44:08.364Z,14.00
2023-12-11T03:46:36.636Z,14.30
2023-12-11T03:49:05.116Z,16.30
2023-12-11T03:51:33.418Z,14.60
2023-12-11T03:54:02.176Z,14.40
2023-12-11T03:56:30.371Z,15.20
2023-12-11T03:58:58.632Z,15.00
2023-12-11T04:01:26.869Z,20.80
2023-12-11T04:03:55.759Z,23.10
2023-12-11T04:06:24.041Z,20.00
2023-12-11T04:08:52.400Z,16.40
2023-12-11T04:11:20.615Z,15.80
2023-12-11T04:13:48.815Z,16.60
2023-12-11T04:16:17.017Z,15.80
2023-12-11T04:18:45.199Z,14.00
2023-12-11T04:21:13.679Z,27.40
2023-12-11T04:23:41.826Z,23.00
2023-12-11T04:26:10.089Z,21.30
2023-12-11T04:28:38.263Z,18.70
2023-12-11T04:31:06.695Z,19.80
2023-12-11T04:33:39.291Z,19.90
2023-12-11T04:36:09.954Z,19.70
2023-12-11T04:38:38.185Z,33.70
2023-12-11T04:41:06.598Z,25.20
2023-12-11T04:43:34.842Z,35.10
2023-12-11T04:46:03.255Z,27.80
2023-12-11T04:48:32.153Z,28.20
2023-12-11T04:51:00.453Z,34.20
2023-12-11T04:53:28.528Z,40.60
2023-12-11T04:55:56.740Z,34.50
2023-12-11T04:58:25.032Z,24.80
2023-12-11T05:00:53.340Z,25.60
2023-12-11T05:03:21.537Z,27.40
2023-12-11T05:05:49.872Z,28.30
2023-12-11T05:08:18.053Z,24.50
2023-12-11T05:10:46.332Z,22.90
2023-12-11T05:13:14.489Z,25.60
2023-12-11T05:15:42.759Z,28.30
2023-12-11T05:18:11.497Z,27.80
2023-12-11T05:20:39.741Z,27.20
2023-12-11T05:23:08.098Z,26.90
2023-12-11T05:25:36.317Z,28.40
2023-12-11T05:28:04.593Z,24.90
2023-12-11T05:30:33.060Z,24.60
2023-12-11T05:33:01.421Z,20.70
2023-12-11T05:35:29.798Z,21.80
2023-12-11T05:37:59.893Z,20.70
2023-12-11T05:40:28.382Z,19.90
2023-12-11T05:42:56.753Z,21.00
2023-12-11T05:45:24.868Z,21.00
2023-12-11T05:47:53.184Z,18.90
2023-12-11T05:50:21.654Z,20.30
2023-12-11T05:52:49.816Z,18.90
2023-12-11T05:55:18.156Z,18.80
2023-12-11T05:57:48.713Z,17.40
2023-12-11T06:00:17.991Z,16.10
2023-12-11T06:02:46.124Z,14.00
2023-12-11T06:05:14.623Z,15.70
2023-12-11T06:07:43.238Z,14.90
2023-12-11T06:10:11.466Z,16.20
2023-12-11T06:12:39.753Z,24.00
2023-12-11T06:15:08.710Z,24.50
2023-12-11T06:17:37.156Z,17.60
2023-12-11T06:20:06.688Z,28.00
2023-12-11T06:22:34.869Z,27.30
2023-12-11T06:25:04.459Z,26.60
2023-12-11T06:27:32.901Z,22.80
2023-12-11T06:30:01.350Z,23.70
2023-12-11T06:32:29.830Z,23.80
2023-12-11T06:34:58.258Z,22.60
2023-12-11T06:37:26.741Z,22.90
2023-12-11T06:39:55.288Z,23.70
2023-12-11T06:42:23.685Z,22.70
2023-12-11T06:44:51.744Z,19.40
2023-12-11T06:47:19.865Z,20.30
2023-12-11T06:49:48.391Z,19.60
2023-12-11T06:52:17.234Z,22.30
2023-12-11T06:54:45.653Z,28.10
2023-12-11T06:57:14.854Z,27.70
2023-12-11T06:59:43.012Z,24.90
2023-12-11T07:02:11.832Z,25.60
2023-12-11T07:04:43.494Z,25.00
2023-12-11T07:07:11.902Z,26.30
2023-12-11T07:09:40.161Z,29.70
2023-12-11T07:12:09.382Z,26.00
2023-12-11T07:14:37.560Z,26.30
2023-12-11T07:17:05.765Z,26.10
2023-12-11T07:19:33.977Z,25.90
2023-12-11T07:22:02.205Z,17.70
2023-12-11T07:24:30.398Z,26.90
2023-12-11T07:26:58.911Z,15.50
2023-12-11T07:29:27.305Z,17.10
2023-12-11T07:31:55.492Z,11.50
2023-12-11T07:34:23.789Z,10.80
2023-12-11T07:36:52.993Z,13.80
2023-12-11T07:39:22.026Z,15.20
2023-12-11T07:41:50.216Z,15.90
2023-12-11T07:44:19.273Z,14.80
2023-12-11T07:46:47.280Z,13.80
2023-12-11T07:49:15.672Z,13.10
2023-12-11T07:51:44.688Z,13.70
2023-12-11T07:54:13.415Z,11.20
2023-12-11T07:56:42.172Z,10.30
2023-12-11T07:59:12.157Z,9.40
2023-12-11T08:01:40.685Z,11.00
2023-12-11T08:04:09.504Z,14.50
2023-12-11T08:06:44.143Z,16.50
2023-12-11T08:09:12.777Z,14.40
2023-12-11T08:11:41.157Z,15.80
2023-12-11T08:14:09.370Z,24.00
2023-12-11T08:16:37.509Z,39.00
2023-12-11T08:19:05.939Z,21.50
2023-12-11T08:21:34.171Z,27.70
2023-12-11T08:24:02.442Z,22.10
2023-12-11T08:26:30.682Z,25.10
2023-12-11T08:29:00.669Z,15.30
2023-12-11T08:31:29.341Z,11.10
2023-12-11T08:33:57.949Z,10.40
2023-12-11T08:36:26.302Z,12.20
2023-12-11T08:38:54.821Z,11.30
2023-12-11T08:41:23.027Z,11.90
2023-12-11T08:43:51.200Z,11.30
2023-12-11T08:46:19.423Z,9.80
2023-12-11T08:48:47.680Z,10.90
2023-12-11T08:51:20.266Z,13.90
2023-12-11T08:53:48.380Z,9.70
2023-12-11T08:56:19.793Z,10.00
2023-12-11T08:58:48.374Z,9.90
2023-12-11T09:01:16.807Z,9.30
2023-12-11T09:03:45.802Z,25.10
2023-12-11T09:06:16.910Z,14.50
2023-12-11T09:08:45.301Z,10.60
2023-12-11T09:11:13.524Z,11.00
2023-12-11T09:13:42.439Z,11.20
2023-12-11T09:16:10.860Z,9.70
2023-12-11T09:18:39.398Z,10.20
2023-12-11T09:21:07.720Z,9.80
2023-12-11T09:23:36.144Z,10.20
2023-12-11T09:26:04.468Z,9.50
2023-12-11T09:28:37.939Z,12.20
2023-12-11T09:31:12.885Z,11.00
2023-12-11T09:33:41.929Z,10.40
2023-12-11T09:36:10.850Z,10.80
2023-12-11T09:38:39.052Z,11.70
2023-12-11T09:41:08.722Z,12.20
2023-12-11T09:43:37.641Z,11.80
2023-12-11T09:46:13.550Z,13.30
2023-12-11T09:48:42.435Z,15.40
2023-12-11T09:51:13.655Z,11.50
2023-12-11T09:53:42.724Z,13.60
2023-12-11T09:56:14.216Z,19.00
2023-12-11T09:58:44.723Z,18.80
2023-12-11T10:01:14.608Z,18.50
2023-12-11T10:03:42.995Z,15.20
2023-12-11T10:06:11.349Z,17.60
2023-12-11T10:08:53.749Z,15.00
2023-12-11T10:11:23.699Z,17.70
2023-12-11T10:13:52.100Z,16.00
2023-12-11T10:16:36.875Z,16.40
2023-12-11T10:19:05.331Z,17.50
2023-12-11T10:21:42.011Z,17.00
2023-12-11T10:24:16.249Z,17.80
2023-12-11T10:26:54.278Z,16.30
2023-12-11T10:29:24.892Z,17.90
2023-12-11T10:32:00.485Z,16.70
2023-12-11T10:34:47.747Z,17.20
2023-12-11T10:37:16.356Z,15.70
2023-12-11T10:39:57.890Z,15.60
2023-12-11T10:42:26.830Z,15.20
2023-12-11T10:44:56.970Z,15.60
2023-12-11T10:47:25.898Z,16.80
2023-12-11T10:49:54.265Z,14.80
2023-12-11T10:52:22.398Z,14.50
2023-12-11T10:54:50.719Z,15.90
2023-12-11T10:57:21.186Z,15.10
2023-12-11T10:59:52.157Z,16.60
2023-12-11T11:02:23.472Z,18.20
2023-12-11T11:04:52.375Z,18.50
2023-12-11T11:07:29.777Z,16.00
2023-12-11T11:10:21.553Z,18.00
2023-12-11T11:12:59.682Z,14.20
2023-12-11T11:15:28.863Z,17.20
2023-12-11T11:17:57.732Z,17.30
2023-12-11T11:20:36.894Z,15.30
2023-12-11T11:23:18.063Z,15.00
2023-12-11T11:25:54.368Z,13.60
2023-12-11T11:28:44.341Z,14.40
2023-12-11T11:31:23.148Z,13.10
2023-12-11T11:33:57.879Z,14.50
2023-12-11T11:36:46.534Z,12.70
2023-12-11T11:39:15.515Z,12.60
2023-12-11T11:41:45.464Z,12.90
2023-12-11T11:44:16.014Z,12.40
2023-12-11T11:46:57.294Z,12.00
2023-12-11T11:49:36.807Z,13.90
2023-12-11T11:52:06.807Z,12.10
2023-12-11T11:54:40.208Z,12.50
2023-12-11T11:57:08.732Z,13.40
2023-12-11T11:59:46.471Z,14.80
2023-12-11T12:02:23.573Z,14.00
2023-12-11T12:04:52.137Z,16.50
2023-12-11T12:07:20.980Z,14.60
2023-12-11T12:09:55.378Z,13.70
2023-12-11T12:12:23.589Z,16.40
2023-12-11T12:15:03.424Z,16.70
2023-12-11T12:17:32.668Z,17.30
2023-12-11T12:20:19.021Z,16.60
2023-12-11T12:23:01.012Z,16.30
2023-12-11T12:25:30.852Z,19.40
2023-12-11T12:28:19.698Z,21.00
2023-12-11T12:30:48.061Z,19.70
2023-12-11T12:33:19.864Z,20.10
2023-12-11T12:35:50.167Z,19.00
2023-12-11T12:38:19.595Z,18.10
2023-12-11T12:40:47.890Z,19.30
2023-12-11T12:43:16.110Z,19.80
2023-12-11T12:45:45.097Z,19.30
2023-12-11T12:48:14.734Z,19.10
2023-12-11T12:50:43.013Z,19.60
2023-12-11T12:53:14.827Z,19.00
2023-12-11T12:55:43.351Z,20.00
2023-12-11T12:58:15.429Z,21.40
2023-12-11T13:00:45.906Z,19.90
2023-12-11T13:03:14.493Z,20.60
2023-12-11T13:05:45.419Z,19.70
2023-12-11T13:08:17.674Z,25.70
2023-12-11T13:10:57.404Z,24.10
2023-12-11T13:13:28.415Z,27.10
2023-12-11T13:15:57.824Z,26.60
2023-12-11T13:18:26.532Z,22.00
2023-12-11T13:20:54.995Z,20.90
2023-12-11T13:23:25.216Z,20.50
2023-12-11T13:25:53.408Z,23.10
2023-12-11T13:28:21.697Z,22.30
2023-12-11T13:30:49.980Z,27.10
2023-12-11T13:33:18.876Z,32.70
2023-12-11T13:35:47.092Z,30.80
2023-12-11T13:38:15.196Z,35.50
2023-12-11T13:40:43.475Z,23.60
2023-12-11T13:43:12.882Z,21.50
2023-12-11T13:45:41.347Z,27.80
2023-12-11T13:48:09.744Z,19.80
2023-12-11T13:50:38.130Z,18.70
2023-12-11T13:53:06.266Z,17.50
2023-12-11T13:55:34.489Z,18.00
2023-12-11T13:58:02.815Z,16.10
2023-12-11T14:00:30.981Z,15.90
2023-12-11T14:03:03.739Z,16.90
2023-12-11T14:05:34.726Z,17.10
2023-12-11T14:08:04.322Z,17.40
2023-12-11T14:10:34.889Z,17.70
2023-12-11T14:13:03.678Z,17.70
2023-12-11T14:15:32.196Z,17.20
2023-12-11T14:18:00.567Z,16.90
2023-12-11T14:20:28.813Z,19.90
2023-12-11T14:22:57.035Z,18.10
2023-12-11T14:25:27.471Z,18.50
2023-12-11T14:27:55.881Z,18.00
2023-12-11T14:30:24.059Z,16.60
2023-12-11T14:32:52.327Z,24.80
2023-12-11T14:35:20.786Z,19.60
2023-12-11T14:37:48.963Z,17.50
2023-12-11T14:40:17.232Z,16.90
2023-12-11T14:42:45.425Z,17.50
2023-12-11T14:45:13.640Z,17.70
2023-12-11T14:47:41.759Z,17.70
2023-12-11T14:50:10.409Z,18.40
2023-12-11T14:52:38.765Z,18.90
2023-12-11T14:55:08.513Z,16.90
2023-12-11T14:57:38.068Z,19.00
2023-12-11T15:00:07.443Z,16.80
2023-12-11T15:02:35.607Z,21.20
2023-12-11T15:05:04.065Z,20.40
2023-12-11T15:07:32.599Z,18.90
2023-12-11T15:10:01.180Z,20.80
2023-12-11T15:12:29.294Z,22.90
2023-12-11T15:14:57.792Z,24.70
2023-12-11T15:17:26.205Z,19.40
2023-12-11T15:19:54.661Z,21.20
2023-12-11T15:22:22.860Z,16.80
2023-12-11T15:24:51.565Z,16.30
2023-12-11T15:27:20.274Z,16.40
2023-12-11T15:29:48.566Z,21.90
2023-12-11T15:32:17.153Z,37.80
2023-12-11T15:34:45.317Z,27.10
2023-12-11T15:37:13.597Z,29.00
2023-12-11T15:39:41.934Z,45.60
2023-12-11T15:42:10.523Z,18.20
2023-12-11T15:44:38.760Z,39.20
2023-12-11T15:47:08.315Z,61.20
2023-12-11T15:49:37.785Z,55.80
2023-12-11T15:52:07.684Z,60.90
2023-12-11T15:54:37.302Z,66.20
2023-12-11T15:57:05.740Z,52.90
2023-12-11T15:59:33.960Z,53.40
2023-12-11T16:02:02.115Z,61.30
2023-12-11T16:04:30.377Z,61.50
2023-12-11T16:06:58.722Z,64.40
2023-12-11T16:09:27.057Z,63.30
2023-12-11T16:11:55.222Z,87.30
2023-12-11T16:14:23.392Z,81.20
2023-12-11T16:16:51.582Z,70.40
2023-12-11T16:19:20.609Z,104.80
2023-12-11T16:21:49.366Z,63.00
2023-12-11T16:24:17.803Z,50.80
2023-12-11T16:26:46.961Z,35.40
2023-12-11T16:29:15.151Z,33.20
2023-12-11T16:31:43.374Z,23.70
2023-12-11T16:34:11.750Z,24.20
2023-12-11T16:36:39.992Z,31.50
2023-12-11T16:39:08.334Z,59.50
2023-12-11T16:41:36.781Z,28.30
2023-12-11T16:44:05.609Z,24.40
2023-12-11T16:46:34.174Z,22.20
2023-12-11T16:49:04.263Z,21.90
2023-12-11T16:51:32.673Z,17.20
2023-12-11T16:54:00.765Z,25.80
2023-12-11T16:56:28.845Z,25.90
2023-12-11T16:58:57.067Z,49.40
2023-12-11T17:01:25.546Z,63.30
2023-12-11T17:03:53.968Z,49.80
2023-12-11T17:06:22.983Z,36.70
2023-12-11T17:08:51.388Z,32.00
2023-12-11T17:11:20.241Z,29.30
2023-12-11T17:13:48.430Z,24.70
2023-12-11T17:16:16.589Z,26.00
2023-12-11T17:18:45.100Z,24.80
2023-12-11T17:21:21.978Z,27.40
2023-12-11T17:23:53.949Z,25.70
2023-12-11T17:26:22.875Z,31.90
2023-12-11T17:28:51.935Z,25.70
2023-12-11T17:31:20.259Z,22.80
2023-12-11T17:33:48.707Z,24.30
2023-12-11T17:36:17.031Z,27.30
2023-12-11T17:38:46.215Z,25.00
2023-12-11T17:41:14.337Z,30.10
2023-12-11T17:43:42.500Z,31.60
2023-12-11T17:46:11.035Z,37.30
2023-12-11T17:48:39.656Z,38.40
2023-12-11T17:51:10.137Z,37.40
2023-12-11T17:53:39.635Z,34.30
2023-12-11T17:56:10.742Z,28.80
2023-12-11T17:58:39.701Z,26.00
2023-12-11T18:01:08.941Z,24.50
2023-12-11T18:03:37.270Z,24.00
2023-12-11T18:06:06.823Z,30.80
2023-12-11T18:08:35.027Z,33.90
2023-12-11T18:11:03.172Z,41.70
2023-12-11T18:13:32.067Z,36.60
2023-12-11T18:16:00.296Z,32.40
2023-12-11T18:18:28.661Z,54.00
2023-12-11T18:20:56.818Z,33.00
2023-12-11T18:23:24.957Z,34.40
2023-12-11T18:25:53.184Z,35.60
2023-12-11T18:28:21.425Z,31.80
2023-12-11T18:30:49.722Z,30.80
2023-12-11T18:33:17.860Z,25.30
2023-12-11T18:35:46.210Z,23.90
2023-12-11T18:38:14.455Z,23.70
2023-12-11T18:40:42.659Z,26.90
2023-12-11T18:43:10.902Z,24.60
2023-12-11T18:45:39.261Z,22.70
2023-12-11T18:48:07.413Z,21.50
2023-12-11T18:50:35.645Z,55.90
2023-12-11T18:53:03.661Z,45.70
2023-12-11T18:55:32.973Z,68.70
2023-12-11T18:58:02.285Z,44.30
2023-12-11T19:00:30.793Z,31.40
2023-12-11T19:02:59.171Z,30.60
2023-12-11T19:05:31.122Z,33.20
2023-12-11T19:07:59.206Z,31.10
2023-12-11T19:10:27.394Z,29.50
2023-12-11T19:12:57.034Z,30.10
2023-12-11T19:15:25.331Z,23.70
2023-12-11T19:17:54.074Z,21.70
2023-12-11T19:20:22.867Z,22.00
2023-12-11T19:22:51.009Z,22.10
2023-12-11T19:25:19.244Z,24.00
2023-12-11T19:27:47.530Z,23.70
2023-12-11T19:30:15.759Z,23.50
2023-12-11T19:32:43.933Z,34.90
2023-12-11T19:35:12.747Z,28.70
2023-12-11T19:37:41.019Z,23.00
2023-12-11T19:40:09.857Z,27.60
2023-12-11T19:42:44.517Z,26.00
2023-12-11T19:45:16.685Z,27.50
2023-12-11T19:47:45.966Z,25.50
2023-12-11T19:50:14.352Z,19.60
2023-12-11T19:52:50.828Z,22.30
2023-12-11T19:55:20.400Z,21.40
2023-12-11T19:57:48.736Z,21.70
2023-12-11T20:00:17.659Z,22.00
2023-12-11T20:02:47.699Z,22.90
2023-12-11T20:05:16.301Z,22.90
2023-12-11T20:07:44.778Z,21.80
2023-12-11T20:10:13.191Z,23.90
2023-12-11T20:12:41.302Z,30.80
2023-12-11T20:15:13.014Z,30.40
2023-12-11T20:17:41.831Z,43.20
2023-12-11T20:20:10.707Z,32.30
2023-12-11T20:22:38.902Z,26.50
2023-12-11T20:25:07.306Z,25.20
2023-12-11T20:27:35.903Z,24.60
2023-12-11T20:30:04.436Z,25.80
2023-12-11T20:32:33.774Z,29.10
2023-12-11T20:35:03.182Z,74.90
2023-12-11T20:37:31.898Z,36.80
2023-12-11T20:40:00.556Z,33.20
2023-12-11T20:42:28.886Z,43.60
2023-12-11T20:44:57.196Z,29.90
2023-12-11T20:47:25.804Z,35.00
2023-12-11T20:49:54.293Z,37.10
2023-12-11T20:52:22.623Z,35.70
2023-12-11T20:54:51.023Z,36.10
2023-12-11T20:57:19.239Z,33.60
2023-12-11T20:59:47.522Z,26.70
2023-12-11T21:02:18.230Z,22.70
2023-12-11T21:04:46.323Z,25.60
2023-12-11T21:07:14.657Z,23.20
2023-12-11T21:09:45.269Z,24.10
2023-12-11T21:12:13.608Z,24.20
2023-12-11T21:14:41.757Z,23.60
2023-12-11T21:17:09.823Z,25.00
2023-12-11T21:19:38.071Z,23.50
2023-12-11T21:22:06.465Z,24.60
2023-12-11T21:24:34.672Z,26.20
2023-12-11T21:27:04.085Z,22.00
2023-12-11T21:29:32.321Z,26.10
2023-12-11T21:32:00.743Z,25.30
2023-12-11T21:34:28.978Z,26.80
2023-12-11T21:36:57.403Z,29.40
2023-12-11T21:39:25.649Z,21.80
2023-12-11T21:41:53.998Z,21.90
2023-12-11T21:44:22.136Z,21.20
2023-12-11T21:46:50.406Z,21.10
2023-12-11T21:49:20.730Z,20.10
2023-12-11T21:51:52.095Z,22.20
2023-12-11T21:54:20.335Z,21.90
2023-12-11T21:56:48.506Z,18.90
2023-12-11T21:59:17.164Z,18.90
2023-12-11T22:01:45.320Z,21.60
2023-12-11T22:04:15.341Z,20.80
2023-12-11T22:06:43.711Z,20.00
2023-12-11T22:09:11.957Z,19.10
2023-12-11T22:11:40.161Z,19.60
2023-12-11T22:14:08.246Z,22.50
2023-12-11T22:16:39.679Z,23.10
2023-12-11T22:19:12.257Z,23.90
2023-12-11T22:21:40.596Z,24.50
2023-12-11T22:24:08.706Z,23.10
2023-12-11T22:26:41.437Z,22.10
2023-12-11T22:29:09.952Z,23.00
2023-12-11T22:31:41.839Z,22.70
2023-12-11T22:34:10.105Z,24.80
2023-12-11T22:36:38.660Z,25.20
2023-12-11T22:39:06.937Z,24.70
2023-12-11T22:41:35.264Z,24.20
2023-12-11T22:44:03.419Z,23.70
2023-12-11T22:46:31.900Z,23.90
2023-12-11T22:49:00.149Z,22.40
2023-12-11T22:51:28.349Z,23.10
2023-12-11T22:53:56.501Z,22.40
2023-12-11T22:56:24.724Z,22.50
2023-12-11T22:58:53.785Z,23.20
2023-12-11T23:01:22.158Z,23.50
2023-12-11T23:03:50.399Z,22.90
2023-12-11T23:06:18.712Z,23.80
2023-12-11T23:08:46.837Z,22.90
2023-12-11T23:11:15.338Z,23.50
2023-12-11T23:13:43.490Z,23.70
2023-12-11T23:16:11.522Z,23.00
2023-12-11T23:18:39.714Z,22.70
2023-12-11T23:21:18.054Z,22.30
2023-12-11T23:23:46.897Z,19.50
2023-12-11T23:26:15.189Z,19.20
2023-12-11T23:28:43.290Z,23.30
2023-12-11T23:31:11.691Z,21.70
2023-12-11T23:33:40.117Z,23.40
2023-12-11T23:36:08.719Z,21.80
2023-12-11T23:38:36.975Z,21.00
2023-12-11T23:41:05.841Z,19.50
2023-12-11T23:43:33.982Z,20.40
2023-12-11T23:46:02.353Z,20.80
2023-12-11T23:48:30.600Z,20.90
2023-12-11T23:50:58.876Z,21.30
2023-12-11T23:53:27.025Z,23.00
2023-12-11T23:55:55.265Z,20.80
2023-12-11T23:58:23.592Z,21.20
